createdAt,value
2023-08-23T00:00:07.140Z,6.95
2023-08-23T00:02:34.137Z,7.57
2023-08-23T00:05:00.903Z,7.43
2023-08-23T00:07:27.475Z,10.48
2023-08-23T00:09:54.227Z,6.70
2023-08-23T00:12:21.050Z,5.65
2023-08-23T00:14:47.600Z,10.02
2023-08-23T00:17:14.151Z,7.28
2023-08-23T00:19:40.712Z,8.68
2023-08-23T00:22:07.345Z,6.35
2023-08-23T00:24:33.885Z,8.70
2023-08-23T00:27:00.593Z,7.22
2023-08-23T00:29:27.191Z,8.47
2023-08-23T00:31:53.767Z,10.45
2023-08-23T00:34:20.357Z,9.07
2023-08-23T00:36:47.888Z,7.10
2023-08-23T00:39:14.545Z,9.38
2023-08-23T00:41:41.322Z,8.75
2023-08-23T00:44:08.067Z,8.53
2023-08-23T00:46:35.190Z,7.45
2023-08-23T00:49:02.053Z,8.27
2023-08-23T00:51:28.642Z,7.93
2023-08-23T00:53:55.241Z,10.05
2023-08-23T00:56:21.828Z,8.43
2023-08-23T00:58:48.574Z,13.52
2023-08-23T01:01:15.234Z,8.00
2023-08-23T01:03:42.065Z,9.23
2023-08-23T01:06:08.823Z,13.10
2023-08-23T01:08:41.203Z,10.93
2023-08-23T01:11:34.496Z,8.45
2023-08-23T01:14:05.010Z,8.52
2023-08-23T01:16:33.707Z,9.52
2023-08-23T01:19:04.542Z,10.15
2023-08-23T01:21:37.591Z,10.23
2023-08-23T01:24:09.869Z,10.73
2023-08-23T01:26:39.691Z,10.07
2023-08-23T01:29:06.402Z,8.85
2023-08-23T01:31:39.282Z,7.63
2023-08-23T01:34:16.721Z,9.48
2023-08-23T01:36:44.968Z,8.68
2023-08-23T01:39:12.228Z,8.77
2023-08-23T01:41:40.010Z,7.60
2023-08-23T01:44:06.792Z,8.45
2023-08-23T01:46:35.364Z,8.75
2023-08-23T01:49:02.741Z,12.02
2023-08-23T01:51:29.319Z,9.57
2023-08-23T01:53:55.928Z,13.43
2023-08-23T01:56:22.470Z,8.52
2023-08-23T01:58:49.060Z,10.07
2023-08-23T02:01:15.725Z,11.40
2023-08-23T02:03:42.467Z,14.35
2023-08-23T02:06:09.145Z,11.70
2023-08-23T02:08:36.909Z,12.57
2023-08-23T02:11:03.501Z,7.70
2023-08-23T02:13:30.066Z,14.55
2023-08-23T02:15:56.814Z,9.80
2023-08-23T02:18:23.540Z,8.77
2023-08-23T02:21:00.148Z,9.52
2023-08-23T02:23:27.180Z,11.98
2023-08-23T02:25:53.818Z,11.85
2023-08-23T02:28:20.537Z,10.63
2023-08-23T02:30:47.238Z,9.90
2023-08-23T02:33:13.984Z,8.05
2023-08-23T02:35:42.628Z,9.98
2023-08-23T02:38:09.828Z,9.30
2023-08-23T02:40:36.582Z,8.20
2023-08-23T02:43:03.145Z,9.60
2023-08-23T02:45:29.665Z,14.07
2023-08-23T02:47:56.194Z,10.30
2023-08-23T02:50:22.831Z,10.38
2023-08-23T02:52:49.402Z,11.20
2023-08-23T02:55:15.966Z,12.40
2023-08-23T02:57:42.572Z,11.15
2023-08-23T03:00:09.589Z,11.70
2023-08-23T03:02:36.235Z,12.45
2023-08-23T03:05:02.885Z,8.73
2023-08-23T03:07:29.449Z,10.02
2023-08-23T03:09:55.984Z,8.70
2023-08-23T03:12:22.597Z,10.35
2023-08-23T03:14:49.163Z,7.55
2023-08-23T03:17:15.732Z,12.73
2023-08-23T03:19:42.346Z,8.60
2023-08-23T03:22:09.230Z,8.13
2023-08-23T03:24:35.923Z,10.77
2023-08-23T03:27:02.483Z,8.07
2023-08-23T03:29:29.032Z,10.38
2023-08-23T03:31:55.610Z,10.18
2023-08-23T03:34:22.132Z,11.48
2023-08-23T03:36:49.939Z,11.30
2023-08-23T03:39:16.592Z,12.80
2023-08-23T03:41:43.105Z,11.98
2023-08-23T03:44:09.693Z,10.95
2023-08-23T03:46:36.298Z,9.25
2023-08-23T03:49:02.881Z,11.68
2023-08-23T03:51:29.435Z,8.45
2023-08-23T03:53:56.001Z,13.65
2023-08-23T03:56:22.552Z,12.30
2023-08-23T03:58:50.483Z,9.00
2023-08-23T04:01:17.091Z,14.27
2023-08-23T04:03:43.835Z,9.60
2023-08-23T04:06:10.522Z,8.13
2023-08-23T04:08:37.046Z,10.43
2023-08-23T04:11:03.626Z,9.68
2023-08-23T04:13:30.645Z,8.63
2023-08-23T04:15:57.185Z,11.02
2023-08-23T04:18:23.719Z,8.40
2023-08-23T04:21:00.274Z,8.73
2023-08-23T04:23:27.273Z,8.40
2023-08-23T04:25:53.911Z,31.20
2023-08-23T04:28:20.650Z,19.97
2023-08-23T04:30:47.181Z,14.10
2023-08-23T04:33:14.153Z,11.57
2023-08-23T04:35:40.828Z,10.37
2023-08-23T04:38:11.218Z,12.88
2023-08-23T04:40:38.029Z,11.85
2023-08-23T04:43:04.810Z,11.60
2023-08-23T04:45:31.343Z,10.25
2023-08-23T04:47:58.125Z,12.45
2023-08-23T04:50:24.741Z,12.10
2023-08-23T04:52:51.321Z,10.40
2023-08-23T04:55:18.070Z,9.20
2023-08-23T04:57:44.625Z,9.07
2023-08-23T05:00:12.788Z,11.63
2023-08-23T05:02:39.473Z,12.38
2023-08-23T05:05:07.365Z,9.35
2023-08-23T05:07:37.185Z,14.27
2023-08-23T05:10:05.670Z,12.55
2023-08-23T05:12:33.449Z,11.80
2023-08-23T05:15:00.053Z,10.70
2023-08-23T05:17:26.708Z,10.85
2023-08-23T05:19:53.234Z,10.18
2023-08-23T05:22:19.821Z,11.30
2023-08-23T05:24:46.401Z,11.32
2023-08-23T05:27:13.227Z,10.90
2023-08-23T05:29:39.828Z,8.45
2023-08-23T05:32:06.519Z,13.30
2023-08-23T05:34:33.103Z,9.90
2023-08-23T05:36:59.832Z,12.23
2023-08-23T05:39:26.476Z,12.95
2023-08-23T05:41:53.055Z,9.80
2023-08-23T05:44:19.649Z,10.00
2023-08-23T05:46:46.208Z,7.68
2023-08-23T05:49:12.871Z,12.95
2023-08-23T05:51:39.844Z,11.95
2023-08-23T05:54:07.309Z,8.23
2023-08-23T05:56:33.854Z,10.15
2023-08-23T05:59:00.404Z,11.88
2023-08-23T06:01:27.038Z,8.98
2023-08-23T06:03:53.741Z,10.37
2023-08-23T06:06:20.359Z,13.98
2023-08-23T06:08:46.935Z,8.65
2023-08-23T06:11:13.928Z,10.65
2023-08-23T06:13:43.886Z,11.53
2023-08-23T06:16:10.858Z,9.85
2023-08-23T06:18:37.490Z,13.73
2023-08-23T06:21:04.010Z,12.68
2023-08-23T06:23:30.573Z,13.45
2023-08-23T06:26:00.876Z,12.98
2023-08-23T06:28:27.559Z,11.38
2023-08-23T06:30:54.181Z,11.33
2023-08-23T06:33:20.857Z,10.38
2023-08-23T06:35:47.433Z,18.98
2023-08-23T06:38:16.933Z,12.82
2023-08-23T06:40:43.799Z,16.42
2023-08-23T06:43:18.335Z,16.20
2023-08-23T06:45:45.017Z,16.05
2023-08-23T06:48:11.827Z,19.17
2023-08-23T06:50:38.563Z,19.00
2023-08-23T06:53:06.454Z,19.92
2023-08-23T06:55:33.076Z,12.57
2023-08-23T06:57:59.733Z,22.33
2023-08-23T07:00:27.746Z,21.30
2023-08-23T07:02:54.419Z,25.03
2023-08-23T07:05:20.963Z,22.27
2023-08-23T07:07:48.480Z,28.40
2023-08-23T07:10:27.371Z,21.58
2023-08-23T07:12:54.960Z,24.95
2023-08-23T07:15:21.840Z,27.47
2023-08-23T07:17:50.265Z,21.27
2023-08-23T07:20:17.461Z,23.23
2023-08-23T07:22:44.159Z,19.00
2023-08-23T07:25:10.802Z,24.10
2023-08-23T07:27:38.139Z,18.05
2023-08-23T07:30:06.588Z,19.67
2023-08-23T07:32:33.680Z,16.48
2023-08-23T07:35:03.672Z,14.13
2023-08-23T07:37:30.263Z,17.25
2023-08-23T07:39:57.010Z,14.35
2023-08-23T07:42:25.247Z,15.38
2023-08-23T07:44:52.925Z,16.60
2023-08-23T07:47:19.740Z,10.25
2023-08-23T07:49:46.409Z,9.40
2023-08-23T07:52:14.161Z,9.40
2023-08-23T07:54:40.746Z,13.82
2023-08-23T07:57:07.371Z,13.90
2023-08-23T07:59:34.057Z,10.70
2023-08-23T08:02:01.316Z,9.25
2023-08-23T08:04:31.020Z,10.35
2023-08-23T08:06:57.778Z,13.48
2023-08-23T08:09:24.418Z,9.38
2023-08-23T08:11:50.965Z,8.95
2023-08-23T08:14:17.513Z,15.18
2023-08-23T08:16:44.158Z,14.43
2023-08-23T08:19:10.768Z,12.13
2023-08-23T08:21:38.024Z,11.38
2023-08-23T08:24:04.964Z,12.32
2023-08-23T08:26:31.607Z,8.75
2023-08-23T08:28:58.158Z,13.45
2023-08-23T08:31:24.745Z,11.85
2023-08-23T08:33:51.418Z,9.93
2023-08-23T08:36:18.044Z,15.52
2023-08-23T08:38:44.585Z,14.80
2023-08-23T08:41:13.551Z,9.75
2023-08-23T08:43:40.344Z,19.40
2023-08-23T08:46:07.793Z,13.52
2023-08-23T08:48:34.899Z,15.25
2023-08-23T08:51:04.101Z,13.18
2023-08-23T08:53:35.172Z,10.75
2023-08-23T08:56:02.211Z,10.57
2023-08-23T08:58:31.118Z,12.67
2023-08-23T09:01:01.853Z,11.48
2023-08-23T09:03:29.279Z,13.07
2023-08-23T09:05:56.377Z,13.60
2023-08-23T09:08:23.256Z,10.20
2023-08-23T09:10:49.923Z,13.70
2023-08-23T09:13:16.633Z,18.77
2023-08-23T09:15:43.335Z,11.63
2023-08-23T09:18:10.091Z,12.40
2023-08-23T09:20:37.294Z,12.60
2023-08-23T09:23:03.977Z,9.23
2023-08-23T09:25:30.573Z,12.05
2023-08-23T09:27:57.607Z,12.82
2023-08-23T09:30:24.808Z,10.68
2023-08-23T09:32:51.453Z,11.93
2023-08-23T09:35:19.247Z,10.63
2023-08-23T09:37:48.360Z,10.45
2023-08-23T09:40:25.189Z,11.48
2023-08-23T09:42:53.739Z,9.10
2023-08-23T09:45:24.370Z,10.47
2023-08-23T09:47:55.861Z,12.98
2023-08-23T09:50:24.402Z,12.15
2023-08-23T09:53:11.601Z,10.15
2023-08-23T09:55:40.269Z,13.98
2023-08-23T09:58:07.435Z,13.15
2023-08-23T10:00:34.842Z,13.10
2023-08-23T10:03:01.854Z,10.77
2023-08-23T10:05:29.400Z,11.43
2023-08-23T10:07:57.535Z,13.75
2023-08-23T10:10:25.142Z,11.95
2023-08-23T10:12:54.840Z,7.63
2023-08-23T10:15:28.126Z,8.75
2023-08-23T10:17:55.622Z,8.40
2023-08-23T10:20:23.859Z,5.57
2023-08-23T10:22:54.870Z,10.10
2023-08-23T10:25:22.890Z,9.77
2023-08-23T10:27:58.579Z,8.77
2023-08-23T10:30:29.792Z,7.55
2023-08-23T10:33:08.386Z,8.95
2023-08-23T10:35:36.292Z,7.70
2023-08-23T10:38:05.582Z,9.45
2023-08-23T10:40:33.658Z,11.93
2023-08-23T10:43:05.267Z,11.45
2023-08-23T10:45:49.671Z,8.83
2023-08-23T10:48:17.410Z,8.73
2023-08-23T10:50:44.101Z,6.50
2023-08-23T10:53:12.182Z,6.28
2023-08-23T10:55:38.981Z,10.02
2023-08-23T10:58:05.538Z,7.88
2023-08-23T11:00:32.266Z,8.63
2023-08-23T11:02:59.941Z,7.20
2023-08-23T11:05:27.956Z,8.63
2023-08-23T11:07:58.191Z,8.13
2023-08-23T11:10:26.464Z,9.37
2023-08-23T11:12:53.471Z,7.68
2023-08-23T11:15:21.755Z,7.43
2023-08-23T11:17:49.332Z,7.43
2023-08-23T11:20:17.266Z,9.40
2023-08-23T11:22:44.164Z,7.43
2023-08-23T11:25:10.906Z,13.95
2023-08-23T11:27:37.630Z,9.93
2023-08-23T11:30:05.206Z,7.35
2023-08-23T11:32:32.173Z,11.13
2023-08-23T11:34:58.837Z,6.60
2023-08-23T11:37:25.471Z,9.82
2023-08-23T11:39:59.495Z,12.60
2023-08-23T11:42:26.665Z,8.60
2023-08-23T11:44:57.197Z,10.98
2023-08-23T11:47:27.335Z,8.20
2023-08-23T11:49:54.084Z,15.02
2023-08-23T11:52:20.727Z,9.37
2023-08-23T11:54:47.365Z,8.65
2023-08-23T11:57:20.066Z,8.30
2023-08-23T11:59:47.771Z,7.00
2023-08-23T12:02:14.533Z,11.17
2023-08-23T12:04:43.294Z,8.15
2023-08-23T12:07:10.806Z,10.02
2023-08-23T12:09:37.706Z,5.25
2023-08-23T12:12:04.699Z,10.10
2023-08-23T12:14:31.308Z,8.50
2023-08-23T12:16:57.917Z,4.20
2023-08-23T12:19:31.766Z,6.27
2023-08-23T12:21:58.855Z,7.45
2023-08-23T12:24:25.443Z,8.18
2023-08-23T12:26:52.061Z,11.95
2023-08-23T12:29:18.614Z,6.10
2023-08-23T12:31:45.312Z,8.15
2023-08-23T12:34:11.897Z,8.82
2023-08-23T12:36:38.534Z,6.57
2023-08-23T12:39:05.880Z,10.95
2023-08-23T12:41:32.752Z,9.23
2023-08-23T12:44:01.512Z,7.25
2023-08-23T12:46:30.744Z,6.33
2023-08-23T12:48:57.378Z,5.85
2023-08-23T12:51:25.875Z,10.57
2023-08-23T12:53:52.456Z,7.10
2023-08-23T12:56:19.062Z,6.15
2023-08-23T12:58:45.654Z,10.85
2023-08-23T13:01:12.369Z,13.27
2023-08-23T13:03:39.226Z,9.20
2023-08-23T13:06:05.882Z,12.47
2023-08-23T13:08:32.481Z,7.35
2023-08-23T13:10:59.099Z,7.95
2023-08-23T13:13:27.987Z,7.22
2023-08-23T13:15:54.584Z,11.65
2023-08-23T13:18:21.292Z,8.50
2023-08-23T13:20:47.868Z,7.28
2023-08-23T13:23:14.486Z,8.65
2023-08-23T13:25:41.134Z,10.90
2023-08-23T13:28:07.851Z,7.40
2023-08-23T13:30:34.441Z,12.80
2023-08-23T13:33:01.459Z,6.15
2023-08-23T13:35:28.273Z,11.52
2023-08-23T13:37:54.806Z,10.00
2023-08-23T13:40:21.346Z,13.47
2023-08-23T13:42:51.026Z,9.50
2023-08-23T13:45:22.252Z,6.72
2023-08-23T13:47:50.078Z,8.13
2023-08-23T13:50:18.802Z,7.73
2023-08-23T13:52:45.402Z,7.82
2023-08-23T13:55:12.111Z,9.40
2023-08-23T13:57:38.712Z,7.15
2023-08-23T14:00:08.373Z,12.20
2023-08-23T14:02:35.629Z,8.55
2023-08-23T14:05:02.215Z,6.30
2023-08-23T14:07:29.168Z,10.32
2023-08-23T14:09:55.799Z,10.05
2023-08-23T14:12:22.309Z,7.22
2023-08-23T14:14:48.948Z,8.65
2023-08-23T14:17:15.501Z,6.90
2023-08-23T14:19:48.983Z,8.48
2023-08-23T14:22:16.411Z,8.13
2023-08-23T14:24:43.869Z,7.65
2023-08-23T14:27:11.654Z,10.23
2023-08-23T14:29:38.430Z,12.27
2023-08-23T14:32:05.077Z,8.60
2023-08-23T14:34:31.695Z,8.23
2023-08-23T14:36:58.289Z,11.68
2023-08-23T14:39:25.095Z,10.52
2023-08-23T14:41:51.781Z,7.43
2023-08-23T14:44:18.365Z,11.45
2023-08-23T14:46:44.934Z,9.83
2023-08-23T14:49:11.650Z,7.73
2023-08-23T14:51:38.279Z,10.05
2023-08-23T14:54:04.970Z,7.10
2023-08-23T14:56:31.582Z,10.93
2023-08-23T14:58:58.610Z,9.75
2023-08-23T15:01:25.443Z,9.65
2023-08-23T15:03:52.088Z,9.00
2023-08-23T15:06:18.664Z,9.15
2023-08-23T15:08:45.427Z,8.32
2023-08-23T15:11:12.095Z,9.15
2023-08-23T15:13:39.738Z,11.00
2023-08-23T15:16:06.339Z,11.27
2023-08-23T15:18:33.075Z,13.80
2023-08-23T15:20:59.639Z,11.73
2023-08-23T15:23:29.111Z,6.80
2023-08-23T15:25:55.731Z,10.75
2023-08-23T15:28:23.106Z,11.07
2023-08-23T15:30:49.716Z,7.63
2023-08-23T15:33:16.427Z,8.95
2023-08-23T15:35:43.124Z,9.63
2023-08-23T15:38:10.164Z,14.70
2023-08-23T15:40:37.491Z,11.20
2023-08-23T15:43:04.248Z,8.57
2023-08-23T15:45:30.799Z,9.85
2023-08-23T15:47:58.961Z,6.95
2023-08-23T15:50:25.991Z,7.18
2023-08-23T15:52:52.548Z,11.02
2023-08-23T15:55:20.146Z,10.13
2023-08-23T15:57:47.133Z,7.10
2023-08-23T16:00:14.541Z,10.20
2023-08-23T16:02:41.272Z,8.50
2023-08-23T16:05:08.182Z,7.95
2023-08-23T16:07:34.849Z,8.73
2023-08-23T16:10:02.212Z,6.38
2023-08-23T16:12:28.809Z,8.65
2023-08-23T16:14:55.384Z,11.55
2023-08-23T16:17:21.929Z,8.02
2023-08-23T16:19:48.545Z,11.18
2023-08-23T16:22:15.146Z,8.63
2023-08-23T16:24:43.087Z,7.53
2023-08-23T16:27:09.727Z,8.52
2023-08-23T16:29:36.269Z,9.70
2023-08-23T16:32:02.836Z,10.40
2023-08-23T16:34:29.855Z,10.57
2023-08-23T16:36:56.623Z,7.97
2023-08-23T16:39:23.234Z,7.97
2023-08-23T16:41:51.917Z,7.40
2023-08-23T16:44:20.269Z,7.68
2023-08-23T16:46:46.814Z,6.18
2023-08-23T16:49:13.563Z,9.18
2023-08-23T16:51:40.387Z,6.15
2023-08-23T16:54:07.314Z,11.35
2023-08-23T16:56:35.746Z,9.40
2023-08-23T16:59:02.467Z,10.13
2023-08-23T17:01:29.113Z,7.90
2023-08-23T17:03:55.816Z,9.63
2023-08-23T17:06:22.409Z,13.83
2023-08-23T17:08:48.934Z,6.45
2023-08-23T17:11:16.693Z,6.88
2023-08-23T17:13:43.520Z,6.93
2023-08-23T17:16:10.186Z,12.48
2023-08-23T17:18:36.877Z,6.57
2023-08-23T17:21:03.684Z,6.82
2023-08-23T17:23:30.776Z,9.38
2023-08-23T17:25:57.876Z,9.13
2023-08-23T17:28:24.548Z,7.57
2023-08-23T17:30:52.446Z,10.63
2023-08-23T17:33:21.313Z,9.00
2023-08-23T17:35:48.210Z,9.40
2023-08-23T17:38:14.809Z,8.32
2023-08-23T17:40:41.334Z,9.00
2023-08-23T17:43:08.045Z,10.10
2023-08-23T17:45:34.767Z,10.00
2023-08-23T17:48:01.423Z,8.05
2023-08-23T17:50:28.051Z,8.02
2023-08-23T17:52:56.441Z,8.02
2023-08-23T17:55:23.402Z,9.15
2023-08-23T17:57:49.952Z,9.70
2023-08-23T18:00:17.343Z,9.25
2023-08-23T18:02:44.325Z,10.15
2023-08-23T18:05:11.084Z,9.97
2023-08-23T18:07:38.826Z,8.25
2023-08-23T18:10:08.408Z,6.63
2023-08-23T18:12:35.323Z,7.33
2023-08-23T18:15:03.369Z,8.38
2023-08-23T18:17:29.978Z,7.15
2023-08-23T18:19:58.525Z,8.20
2023-08-23T18:22:25.158Z,8.45
2023-08-23T18:24:51.790Z,8.80
2023-08-23T18:27:18.336Z,11.45
2023-08-23T18:29:44.896Z,7.72
2023-08-23T18:32:11.479Z,11.23
2023-08-23T18:34:38.127Z,9.65
2023-08-23T18:37:04.927Z,11.32
2023-08-23T18:39:31.493Z,9.13
2023-08-23T18:41:58.187Z,9.43
2023-08-23T18:44:24.735Z,10.70
2023-08-23T18:46:51.304Z,10.53
2023-08-23T18:49:17.829Z,14.05
2023-08-23T18:51:44.420Z,7.18
2023-08-23T18:54:12.219Z,9.95
2023-08-23T18:56:39.024Z,9.18
2023-08-23T18:59:05.624Z,10.02
2023-08-23T19:01:32.491Z,6.85
2023-08-23T19:03:59.315Z,11.13
2023-08-23T19:06:27.067Z,15.30
2023-08-23T19:08:53.601Z,12.23
2023-08-23T19:11:20.168Z,13.47
2023-08-23T19:13:46.780Z,9.13
2023-08-23T19:16:13.470Z,12.13
2023-08-23T19:18:40.072Z,10.75
2023-08-23T19:21:06.674Z,12.20
2023-08-23T19:23:33.196Z,8.10
2023-08-23T19:25:59.996Z,11.67
2023-08-23T19:28:26.577Z,10.82
2023-08-23T19:30:53.233Z,7.37
2023-08-23T19:33:19.830Z,11.68
2023-08-23T19:35:47.349Z,8.65
2023-08-23T19:38:14.069Z,10.63
2023-08-23T19:40:40.900Z,10.75
2023-08-23T19:43:07.784Z,10.20
2023-08-23T19:45:34.607Z,9.25
2023-08-23T19:48:13.644Z,12.57
2023-08-23T19:50:49.680Z,11.90
2023-08-23T19:53:18.166Z,12.90
2023-08-23T19:55:44.812Z,11.03
2023-08-23T19:58:11.517Z,14.55
2023-08-23T20:00:38.165Z,12.65
2023-08-23T20:03:05.155Z,11.00
2023-08-23T20:05:31.834Z,11.93
2023-08-23T20:08:01.371Z,12.80
2023-08-23T20:10:29.163Z,13.93
2023-08-23T20:12:55.822Z,12.88
2023-08-23T20:15:22.490Z,12.13
2023-08-23T20:17:49.385Z,16.88
2023-08-23T20:20:16.263Z,11.95
2023-08-23T20:22:42.851Z,9.20
2023-08-23T20:25:09.736Z,9.48
2023-08-23T20:27:36.326Z,11.45
2023-08-23T20:30:03.826Z,12.88
2023-08-23T20:32:30.547Z,10.07
2023-08-23T20:34:57.197Z,9.32
2023-08-23T20:37:23.845Z,14.85
2023-08-23T20:39:50.422Z,11.70
2023-08-23T20:42:17.256Z,16.42
2023-08-23T20:44:43.831Z,12.55
2023-08-23T20:47:10.479Z,18.17
2023-08-23T20:49:37.101Z,13.98
2023-08-23T20:52:04.672Z,12.40
2023-08-23T20:54:32.008Z,12.77
2023-08-23T20:56:58.658Z,12.98
2023-08-23T20:59:25.253Z,14.20
2023-08-23T21:01:52.021Z,17.80
2023-08-23T21:04:18.700Z,15.77
2023-08-23T21:06:45.400Z,11.60
2023-08-23T21:09:12.002Z,13.52
2023-08-23T21:11:38.684Z,14.85
2023-08-23T21:14:06.767Z,15.40
2023-08-23T21:16:33.645Z,11.10
2023-08-23T21:19:01.635Z,12.75
2023-08-23T21:21:29.028Z,13.32
2023-08-23T21:23:55.712Z,12.50
2023-08-23T21:26:23.115Z,11.80
2023-08-23T21:28:50.139Z,11.73
2023-08-23T21:31:16.854Z,15.65
2023-08-23T21:33:43.558Z,10.93
2023-08-23T21:36:10.181Z,11.30
2023-08-23T21:38:36.806Z,9.48
2023-08-23T21:41:03.612Z,9.20
2023-08-23T21:43:30.544Z,11.00
2023-08-23T21:45:58.280Z,10.52
2023-08-23T21:48:25.777Z,8.87
2023-08-23T21:50:52.988Z,9.55
2023-08-23T21:53:19.698Z,10.02
2023-08-23T21:55:56.933Z,13.30
2023-08-23T21:58:24.288Z,12.00
2023-08-23T22:00:54.728Z,11.47
2023-08-23T22:03:35.527Z,14.35
2023-08-23T22:06:07.478Z,12.93
2023-08-23T22:08:35.618Z,7.05
2023-08-23T22:11:03.591Z,10.85
2023-08-23T22:13:32.363Z,12.65
2023-08-23T22:15:59.165Z,8.95
2023-08-23T22:18:27.060Z,10.07
2023-08-23T22:20:54.434Z,10.80
2023-08-23T22:23:22.781Z,10.73
2023-08-23T22:25:50.139Z,11.82
2023-08-23T22:28:17.052Z,10.90
2023-08-23T22:30:43.793Z,9.13
2023-08-23T22:33:10.644Z,13.63
2023-08-23T22:35:39.059Z,12.90
2023-08-23T22:38:06.784Z,15.43
2023-08-23T22:40:37.338Z,13.68
2023-08-23T22:43:04.389Z,20.00
2023-08-23T22:45:32.215Z,19.45
2023-08-23T22:48:01.126Z,25.52
2023-08-23T22:50:28.318Z,17.85
2023-08-23T22:52:55.069Z,18.63
2023-08-23T22:55:21.802Z,18.65
2023-08-23T22:57:49.136Z,21.35
2023-08-23T23:00:16.180Z,14.57
2023-08-23T23:02:43.700Z,17.10
2023-08-23T23:05:10.504Z,14.00
2023-08-23T23:07:38.755Z,16.58
2023-08-23T23:10:07.381Z,16.80
2023-08-23T23:12:34.995Z,17.52
2023-08-23T23:15:04.551Z,13.77
2023-08-23T23:17:31.949Z,13.77
2023-08-23T23:19:58.957Z,17.98
2023-08-23T23:22:25.778Z,13.68
2023-08-23T23:24:52.347Z,12.90
2023-08-23T23:27:18.908Z,12.65
2023-08-23T23:29:45.564Z,13.50
2023-08-23T23:32:12.409Z,13.70
2023-08-23T23:34:39.072Z,12.55
2023-08-23T23:37:05.895Z,9.60
2023-08-23T23:39:32.540Z,11.20
2023-08-23T23:41:59.129Z,12.10
2023-08-23T23:44:25.748Z,10.07
2023-08-23T23:46:52.414Z,13.73
2023-08-23T23:49:19.050Z,14.07
2023-08-23T23:51:45.752Z,12.65
2023-08-23T23:54:12.316Z,11.57
2023-08-23T23:56:38.948Z,13.68
2023-08-23T23:59:06.358Z,11.18
